Terminal Aerodrome Forecast
Issued by NWS

Home | Current Version | Previous Version | Text Only | Print | Product List | Glossary On
Versions: 1 2 3 4 5 6 7 8 9 10 11 12 13 14 15
000
FTUS43 KPAH 230900 AAA
TAFCGI
TAF AMD
KCGI 230909Z 2309/2406 00000KT 4SM BR MIFG SKC
      TEMPO 2309/2313 3/4SM BR VV002
     FM231400 VRB03KT P6SM SCT250
     FM240100 00000KT P6SM SCT250=

USA.gov is the U.S. government's official web portal to all federal, state and local government web resources and services.